Freeport, Michigan
Current Conditions -  °F | °C
As of 8:53 AM on Wednesday 28 Jan 2015 (Local Time) from KGRR Reporting Station
Scattered Clouds Scattered Clouds  
Wind Chill:   Ceiling: Unl
Heat Index: 13°   Visibility: 9mi
Dew Point:   Wind: 7mph
Humidity: 81%   Direction: 170°S
Pressure: 30.3"   Gusts: NA
Location:  42.77°N, 85.31°W
Report Text: KGRR 281353Z 17006KT 9SM FEW120 SCT250 M11/M13 A3030 RMK AO2 SLP275 T11061133
Loading
Personal Weather Stations






























Interactive Weather Map New forecast layout! Learn more

10-Day Weather Forecast

Advertisements
Track Severe Weather on mobile